Time;durP1;ratioP1;P1;durP2;ratioP2;P2;SDS_P1;SDS_P2;PMS_P1;PMS_P2;Temp;Humidity;BMP_temperature;BMP_pressure;BME280_temperature;BME280_humidity;BME280_pressure;Samples;Min_cycle;Max_cycle;Signal;HPM_P1;HPM_P2
2022/03/30 00:00:35;;;;;;;;;;;;;;;;;;5033786;28;19912;-47
2022/03/30 00:03:01;;;;;;;;;;;;;;;;;;5033521;28;19952;-47
2022/03/30 00:05:27;;;;;;;;;;;;;;;;;;5033684;28;20352;-46
2022/03/30 00:07:53;;;;;;;;;;;;;;;;;;5033649;28;19905;-46
2022/03/30 00:10:19;;;;;;;;;;;;;;;;;;5033425;28;19913;-46
2022/03/30 00:12:45;;;;;;;;;;;;;;;;;;5033778;28;19904;-47
2022/03/30 00:15:11;;;;;;;;;;;;;;;;;;5033364;28;20371;-47
2022/03/30 00:17:37;;;;;;;;;;;;;;;;;;5033236;28;19971;-47
2022/03/30 00:20:03;;;;;;;;;;;;;;;;;;5033624;28;19988;-47
2022/03/30 00:22:29;;;;;;;;;;;;;;;;;;5033596;28;19912;-47
2022/03/30 00:24:54;;;;;;;;;;;;;;;;;;5033365;28;19905;-46
2022/03/30 00:27:20;;;;;;;;;;;;;;;;;;5033280;28;20008;-46
2022/03/30 00:29:46;;;;;;;;;;;;;;;;;;5033242;28;20394;-46
2022/03/30 00:32:12;;;;;;;;;;;;;;;;;;5033149;28;19912;-47
2022/03/30 00:34:39;;;;;;;;;;;;;;;;;;5033070;28;20379;-46
2022/03/30 00:37:05;;;;;;;;;;;;;;;;;;5033104;28;19912;-48
2022/03/30 00:39:31;;;;;;;;;;;;;;;;;;5032955;28;19913;-46
2022/03/30 00:41:56;;;;;;;;;;;;;;;;;;5032942;28;19992;-46
2022/03/30 00:44:22;;;;;;;;;;;;;;;;;;5032919;28;19928;-46
2022/03/30 00:46:48;;;;;;;;;;;;;;;;;;5033030;28;19937;-47
2022/03/30 00:49:14;;;;;;;;;;;;;;;;;;5032881;28;19917;-48
2022/03/30 00:51:40;;;;;;;;;;;;;;;;;;5032778;28;20299;-47
2022/03/30 00:54:06;;;;;;;;;;;;;;;;;;5032782;28;19905;-47
2022/03/30 00:56:32;;;;;;;;;;;;;;;;;;5032738;28;20433;-47
2022/03/30 00:58:58;;;;;;;;;;;;;;;;;;5033157;28;19909;-46
2022/03/30 01:01:24;;;;;;;;;;;;;;;;;;5032535;28;19905;-46
2022/03/30 01:03:50;;;;;;;;;;;;;;;;;;5032777;28;19928;-47
2022/03/30 01:06:16;;;;;;;;;;;;;;;;;;5032704;28;19905;-47
2022/03/30 01:08:42;;;;;;;;;;;;;;;;;;5032492;28;20319;-46
2022/03/30 01:11:09;;;;;;;;;;;;;;;;;;5032465;28;19909;-47
2022/03/30 01:13:35;;;;;;;;;;;;;;;;;;5032424;28;19996;-47
2022/03/30 01:16:02;;;;;;;;;;;;;;;;;;5032433;28;19949;-48
2022/03/30 01:18:28;;;;;;;;;;;;;;;;;;5032507;28;20306;-47
2022/03/30 01:20:53;;;;;;;;;;;;;;;;;;5032426;28;19949;-47
2022/03/30 01:23:19;;;;;;;;;;;;;;;;;;5032380;28;20298;-46
2022/03/30 01:25:45;;;;;;;;;;;;;;;;;;5032508;28;19905;-47
2022/03/30 01:28:11;;;;;;;;;;;;;;;;;;5032378;28;20420;-46
2022/03/30 01:33:21;;;;;;;;;;;;;;;;;;5032260;28;19959;-46
2022/03/30 01:35:47;;;;;;;;;;;;;;;;;;5032169;28;19905;-47
2022/03/30 01:38:13;;;;;;;;;;;;;;;;;;5032235;28;20291;-47
2022/03/30 01:40:39;;;;;;;;;;;;;;;;;;5032219;28;19905;-46
2022/03/30 01:43:05;;;;;;;;;;;;;;;;;;5032296;28;19912;-47
2022/03/30 01:45:31;;;;;;;;;;;;;;;;;;5032181;28;19905;-47
2022/03/30 01:47:57;;;;;;;;;;;;;;;;;;5032029;28;20386;-46
2022/03/30 01:50:23;;;;;;;;;;;;;;;;;;5032099;28;20011;-47
2022/03/30 01:52:49;;;;;;;;;;;;;;;;;;5032166;28;20429;-48
2022/03/30 01:55:15;;;;;;;;;;;;;;;;;;5032115;28;19905;-46
2022/03/30 01:57:41;;;;;;;;;;;;;;;;;;5032158;28;19909;-47
2022/03/30 02:00:07;;;;;;;;;;;;;;;;;;5032324;28;19970;-47
2022/03/30 02:02:33;;;;;;;;;;;;;;;;;;5031923;28;19924;-46
2022/03/30 02:04:59;;;;;;;;;;;;;;;;;;5032010;28;20311;-46
2022/03/30 02:07:25;;;;;;;;;;;;;;;;;;5032213;28;19916;-47
2022/03/30 02:09:51;;;;;;;;;;;;;;;;;;5031822;28;20372;-47
2022/03/30 02:12:18;;;;;;;;;;;;;;;;;;5033222;28;19917;-46
2022/03/30 02:14:44;;;;;;;;;;;;;;;;;;5035794;28;20425;-47
2022/03/30 02:17:10;;;;;;;;;;;;;;;;;;5035628;28;19996;-47
2022/03/30 02:19:36;;;;;;;;;;;;;;;;;;5035817;28;19905;-48
2022/03/30 02:22:02;;;;;;;;;;;;;;;;;;5035539;28;20454;-47
2022/03/30 02:24:28;;;;;;;;;;;;;;;;;;5035559;28;19905;-47
2022/03/30 02:26:54;;;;;;;;;;;;;;;;;;5035506;28;19951;-46
2022/03/30 02:29:20;;;;;;;;;;;;;;;;;;5035714;28;20084;-46
2022/03/30 02:31:46;;;;;;;;;;;;;;;;;;5035336;28;19905;-46
2022/03/30 02:34:12;;;;;;;;;;;;;;;;;;5035302;28;19912;-46
2022/03/30 02:36:37;;;;;;;;;;;;;;;;;;5035567;28;19927;-46
2022/03/30 02:39:03;;;;;;;;;;;;;;;;;;5035423;28;19951;-49
2022/03/30 02:41:29;;;;;;;;;;;;;;;;;;5035377;28;20330;-47
2022/03/30 02:43:55;;;;;;;;;;;;;;;;;;5035213;28;19959;-46
2022/03/30 02:46:21;;;;;;;;;;;;;;;;;;5035211;28;19909;-48
2022/03/30 02:48:47;;;;;;;;;;;;;;;;;;5034996;28;20274;-47
2022/03/30 02:51:13;;;;;;;;;;;;;;;;;;5035375;28;19935;-47
2022/03/30 02:53:39;;;;;;;;;;;;;;;;;;5034974;28;19909;-46
2022/03/30 02:56:04;;;;;;;;;;;;;;;;;;5035059;28;19905;-47
2022/03/30 02:58:30;;;;;;;;;;;;;;;;;;5035336;28;20410;-47
2022/03/30 03:00:56;;;;;;;;;;;;;;;;;;5034986;28;19972;-47
2022/03/30 03:03:22;;;;;;;;;;;;;;;;;;5033332;28;20375;-47
2022/03/30 03:05:48;;;;;;;;;;;;;;;;;;5034918;28;19920;-47
2022/03/30 03:08:14;;;;;;;;;;;;;;;;;;5034816;28;20000;-47
2022/03/30 03:10:40;;;;;;;;;;;;;;;;;;5034675;28;19924;-46
2022/03/30 03:13:06;;;;;;;;;;;;;;;;;;5034637;28;19951;-47
2022/03/30 03:15:32;;;;;;;;;;;;;;;;;;5034786;28;19905;-47
2022/03/30 03:17:58;;;;;;;;;;;;;;;;;;5034676;28;19911;-46
2022/03/30 03:20:23;;;;;;;;;;;;;;;;;;5034955;28;19905;-47
2022/03/30 03:22:49;;;;;;;;;;;;;;;;;;5034422;28;19913;-47
2022/03/30 03:25:15;;;;;;;;;;;;;;;;;;5034500;28;20003;-47
2022/03/30 03:27:41;;;;;;;;;;;;;;;;;;5034534;28;19905;-47
2022/03/30 03:30:07;;;;;;;;;;;;;;;;;;5034184;28;19970;-47
2022/03/30 03:32:33;;;;;;;;;;;;;;;;;;5034396;28;19947;-47
2022/03/30 03:34:59;;;;;;;;;;;;;;;;;;5034497;28;19905;-46
2022/03/30 03:37:25;;;;;;;;;;;;;;;;;;5034297;28;19912;-47
2022/03/30 03:39:51;;;;;;;;;;;;;;;;;;5034223;28;20505;-47
2022/03/30 03:42:17;;;;;;;;;;;;;;;;;;5034150;28;19937;-47
2022/03/30 03:44:42;;;;;;;;;;;;;;;;;;5034047;28;20292;-48
2022/03/30 03:47:09;;;;;;;;;;;;;;;;;;5034084;28;19959;-47
2022/03/30 03:49:35;;;;;;;;;;;;;;;;;;5033871;28;20352;-47
2022/03/30 03:52:01;;;;;;;;;;;;;;;;;;5034250;28;19959;-47
2022/03/30 03:54:27;;;;;;;;;;;;;;;;;;5033961;28;19905;-48
2022/03/30 03:56:53;;;;;;;;;;;;;;;;;;5033867;28;19955;-46
2022/03/30 03:59:19;;;;;;;;;;;;;;;;;;5033864;28;19905;-46
2022/03/30 04:01:44;;;;;;;;;;;;;;;;;;5033556;28;20195;-47
2022/03/30 04:04:10;;;;;;;;;;;;;;;;;;5033703;28;19913;-47
2022/03/30 04:06:36;;;;;;;;;;;;;;;;;;5033734;28;20376;-47
2022/03/30 04:09:02;;;;;;;;;;;;;;;;;;5033681;28;20008;-50
2022/03/30 04:11:28;;;;;;;;;;;;;;;;;;5033897;28;19905;-59
2022/03/30 04:13:54;;;;;;;;;;;;;;;;;;5034049;28;19912;-59
2022/03/30 04:16:20;;;;;;;;;;;;;;;;;;5034042;28;20367;-59
2022/03/30 04:18:46;;;;;;;;;;;;;;;;;;5033874;28;19912;-59
2022/03/30 04:21:12;;;;;;;;;;;;;;;;;;5033845;28;19912;-59
2022/03/30 04:23:38;;;;;;;;;;;;;;;;;;5033752;28;20364;-59
2022/03/30 04:26:04;;;;;;;;;;;;;;;;;;5033804;28;19905;-60
2022/03/30 04:28:30;;;;;;;;;;;;;;;;;;5033860;28;19932;-59
2022/03/30 04:30:55;;;;;;;;;;;;;;;;;;5033845;28;19999;-48
2022/03/30 04:33:21;;;;;;;;;;;;;;;;;;5033247;28;19907;-48
2022/03/30 04:35:47;;;;;;;;;;;;;;;;;;5032718;28;20013;-47
2022/03/30 04:38:14;;;;;;;;;;;;;;;;;;5033204;28;19905;-47
2022/03/30 04:40:40;;;;;;;;;;;;;;;;;;5033454;28;19911;-46
2022/03/30 04:43:06;;;;;;;;;;;;;;;;;;5033002;28;19991;-47
2022/03/30 04:45:31;;;;;;;;;;;;;;;;;;5032957;28;19905;-47
2022/03/30 04:47:57;;;;;;;;;;;;;;;;;;5032952;28;19935;-46
2022/03/30 04:50:23;;;;;;;;;;;;;;;;;;5033067;28;19921;-47
2022/03/30 04:52:49;;;;;;;;;;;;;;;;;;5033134;28;19912;-47
2022/03/30 04:55:15;;;;;;;;;;;;;;;;;;5032666;28;20014;-47
2022/03/30 04:57:41;;;;;;;;;;;;;;;;;;5032791;28;19915;-46
2022/03/30 05:00:08;;;;;;;;;;;;;;;;;;5032653;28;19905;-47
2022/03/30 05:02:34;;;;;;;;;;;;;;;;;;5032638;28;19917;-47
2022/03/30 05:05:00;;;;;;;;;;;;;;;;;;5033085;28;20279;-47
2022/03/30 05:07:26;;;;;;;;;;;;;;;;;;5032730;28;19905;-47
2022/03/30 05:09:52;;;;;;;;;;;;;;;;;;5032737;28;19913;-46
2022/03/30 05:12:17;;;;;;;;;;;;;;;;;;5032918;28;19947;-46
2022/03/30 05:14:43;;;;;;;;;;;;;;;;;;5032530;28;19948;-48
2022/03/30 05:17:09;;;;;;;;;;;;;;;;;;5032570;28;19905;-46
2022/03/30 05:19:35;;;;;;;;;;;;;;;;;;5032448;28;19952;-46
2022/03/30 05:22:01;;;;;;;;;;;;;;;;;;5032485;28;20386;-47
2022/03/30 05:24:27;;;;;;;;;;;;;;;;;;5032564;28;19905;-48
2022/03/30 05:26:55;;;;;;;;;;;;;;;;;;5032465;28;19920;-46
2022/03/30 05:29:21;;;;;;;;;;;;;;;;;;5032406;28;19992;-47
2022/03/30 05:31:47;;;;;;;;;;;;;;;;;;5032375;28;19917;-47
2022/03/30 05:34:13;;;;;;;;;;;;;;;;;;5032392;28;20020;-47
2022/03/30 05:36:39;;;;;;;;;;;;;;;;;;5032315;28;19964;-47
2022/03/30 05:39:05;;;;;;;;;;;;;;;;;;5032253;28;19912;-46
2022/03/30 05:41:31;;;;;;;;;;;;;;;;;;5032313;28;19912;-47
2022/03/30 05:43:57;;;;;;;;;;;;;;;;;;5032488;28;19905;-46
2022/03/30 05:46:23;;;;;;;;;;;;;;;;;;5032236;28;19987;-47
2022/03/30 05:48:48;;;;;;;;;;;;;;;;;;5036060;28;19912;-48
2022/03/30 05:51:14;;;;;;;;;;;;;;;;;;5036305;28;19941;-48
2022/03/30 05:53:40;;;;;;;;;;;;;;;;;;5036193;28;19909;-47
2022/03/30 05:56:06;;;;;;;;;;;;;;;;;;5036181;28;19905;-47
2022/03/30 05:58:32;;;;;;;;;;;;;;;;;;5035979;28;19909;-47
2022/03/30 06:00:58;;;;;;;;;;;;;;;;;;5036459;28;19947;-46
2022/03/30 06:03:24;;;;;;;;;;;;;;;;;;5035718;28;19917;-48
2022/03/30 06:05:51;;;;;;;;;;;;;;;;;;5035908;28;19905;-47
2022/03/30 06:08:16;;;;;;;;;;;;;;;;;;5036326;28;20174;-46
2022/03/30 06:10:42;;;;;;;;;;;;;;;;;;5035864;28;20193;-47
2022/03/30 06:13:08;;;;;;;;;;;;;;;;;;5035911;28;20066;-48
2022/03/30 06:15:34;;;;;;;;;;;;;;;;;;5035821;28;19947;-47
2022/03/30 06:18:00;;;;;;;;;;;;;;;;;;5035819;28;20299;-47
2022/03/30 06:20:26;;;;;;;;;;;;;;;;;;5036099;28;19987;-47
2022/03/30 06:22:52;;;;;;;;;;;;;;;;;;5035703;28;19912;-46
2022/03/30 06:25:18;;;;;;;;;;;;;;;;;;5035678;28;19911;-47
2022/03/30 06:27:44;;;;;;;;;;;;;;;;;;5035540;28;19905;-47
2022/03/30 06:30:10;;;;;;;;;;;;;;;;;;5035711;28;19967;-48
2022/03/30 06:32:36;;;;;;;;;;;;;;;;;;5035740;28;19905;-47
2022/03/30 06:35:02;;;;;;;;;;;;;;;;;;5035357;28;19905;-49
2022/03/30 06:37:28;;;;;;;;;;;;;;;;;;5035408;28;19905;-46
2022/03/30 06:39:54;;;;;;;;;;;;;;;;;;5035432;28;19905;-48
2022/03/30 06:42:19;;;;;;;;;;;;;;;;;;5035749;28;19905;-47
2022/03/30 06:44:45;;;;;;;;;;;;;;;;;;5035256;28;19935;-48
2022/03/30 06:47:11;;;;;;;;;;;;;;;;;;5035503;28;19955;-48
2022/03/30 06:49:37;;;;;;;;;;;;;;;;;;5035173;28;20032;-48
2022/03/30 06:52:03;;;;;;;;;;;;;;;;;;5035235;28;19928;-49
2022/03/30 06:54:29;;;;;;;;;;;;;;;;;;5035031;28;19927;-47
2022/03/30 06:56:55;;;;;;;;;;;;;;;;;;5035233;28;19982;-47
2022/03/30 06:59:20;;;;;;;;;;;;;;;;;;5034558;28;19909;-48
2022/03/30 07:01:46;;;;;;;;;;;;;;;;;;5034770;28;19992;-47
2022/03/30 07:04:12;;;;;;;;;;;;;;;;;;5035253;28;20379;-48
2022/03/30 07:10:14;;;;;;;;;;;;;;;;;;5034959;28;20391;-47
2022/03/30 07:12:09;;;;;;;;;;;;;;;;;;5034960;28;20038;-48
2022/03/30 07:14:34;;;;;;;;;;;;;;;;;;5033606;28;19952;-47
2022/03/30 07:17:00;;;;;;;;;;;;;;;;;;5034747;28;19916;-47
2022/03/30 07:19:27;;;;;;;;;;;;;;;;;;5034713;28;20303;-47
2022/03/30 07:21:53;;;;;;;;;;;;;;;;;;5033396;28;19905;-47
2022/03/30 07:24:19;;;;;;;;;;;;;;;;;;5034504;28;19905;-50
2022/03/30 07:26:45;;;;;;;;;;;;;;;;;;5034619;28;19911;-47
2022/03/30 07:29:11;;;;;;;;;;;;;;;;;;5034500;28;19917;-48
2022/03/30 07:31:37;;;;;;;;;;;;;;;;;;5034416;28;19996;-47
2022/03/30 07:34:04;;;;;;;;;;;;;;;;;;5034790;28;20283;-49
2022/03/30 07:36:29;;;;;;;;;;;;;;;;;;5035159;28;19952;-48
2022/03/30 07:38:55;;;;;;;;;;;;;;;;;;5034515;28;19905;-47
2022/03/30 07:41:21;;;;;;;;;;;;;;;;;;5034555;28;19912;-47
2022/03/30 07:43:47;;;;;;;;;;;;;;;;;;5034524;28;19905;-47
2022/03/30 07:46:13;;;;;;;;;;;;;;;;;;5034447;28;19928;-48
2022/03/30 07:48:39;;;;;;;;;;;;;;;;;;5034323;28;20403;-47
2022/03/30 07:51:05;;;;;;;;;;;;;;;;;;5034297;28;20005;-48
2022/03/30 07:53:31;;;;;;;;;;;;;;;;;;5034360;28;20368;-47
2022/03/30 07:55:57;;;;;;;;;;;;;;;;;;5034279;28;19905;-48
2022/03/30 07:58:23;;;;;;;;;;;;;;;;;;5034193;28;19911;-47
2022/03/30 08:00:49;;;;;;;;;;;;;;;;;;5034158;28;19905;-48
2022/03/30 08:03:14;;;;;;;;;;;;;;;;;;5033730;28;19975;-48
2022/03/30 08:05:40;;;;;;;;;;;;;;;;;;5034354;28;19931;-48
2022/03/30 08:08:07;;;;;;;;;;;;;;;;;;5033789;28;19905;-48
2022/03/30 08:10:35;;;;;;;;;;;;;;;;;;5033299;28;19922;-47
2022/03/30 08:13:00;;;;;;;;;;;;;;;;;;5034155;28;19908;-48
2022/03/30 08:15:27;;;;;;;;;;;;;;;;;;5033838;28;20317;-49
2022/03/30 08:17:54;;;;;;;;;;;;;;;;;;5034043;28;19921;-47
2022/03/30 08:23:05;;;;;;;;;;;;;;;;;;5033738;28;19998;-48
2022/03/30 08:25:31;;;;;;;;;;;;;;;;;;5033899;28;19913;-47
2022/03/30 08:27:57;;;;;;;;;;;;;;;;;;5033625;28;19911;-48
2022/03/30 08:30:23;;;;;;;;;;;;;;;;;;5033828;28;19987;-48
2022/03/30 08:32:48;;;;;;;;;;;;;;;;;;5033697;28;20267;-47
2022/03/30 08:35:15;;;;;;;;;;;;;;;;;;5033425;28;19995;-47
2022/03/30 08:37:41;;;;;;;;;;;;;;;;;;5033715;28;20216;-48
2022/03/30 08:40:06;;;;;;;;;;;;;;;;;;5033289;28;19905;-48
2022/03/30 08:42:32;;;;;;;;;;;;;;;;;;5033267;28;19905;-48
2022/03/30 08:44:59;;;;;;;;;;;;;;;;;;5033352;28;19912;-48
2022/03/30 08:47:25;;;;;;;;;;;;;;;;;;5033600;28;19955;-47
2022/03/30 08:49:51;;;;;;;;;;;;;;;;;;5033149;28;19917;-47
2022/03/30 08:52:17;;;;;;;;;;;;;;;;;;5033150;28;19905;-47
2022/03/30 08:54:43;;;;;;;;;;;;;;;;;;5033229;28;19905;-48
2022/03/30 08:57:09;;;;;;;;;;;;;;;;;;5033426;28;19959;-48
2022/03/30 08:59:35;;;;;;;;;;;;;;;;;;5033174;28;19905;-48
2022/03/30 09:02:01;;;;;;;;;;;;;;;;;;5032824;28;19913;-48
2022/03/30 09:04:27;;;;;;;;;;;;;;;;;;5033112;28;19912;-48
2022/03/30 09:06:53;;;;;;;;;;;;;;;;;;5033289;28;19927;-61
2022/03/30 09:09:19;;;;;;;;;;;;;;;;;;5033227;28;19913;-61
2022/03/30 09:11:45;;;;;;;;;;;;;;;;;;5032999;28;20036;-61
2022/03/30 09:14:12;;;;;;;;;;;;;;;;;;5032865;28;19932;-61
2022/03/30 09:16:38;;;;;;;;;;;;;;;;;;5033163;28;19905;-61
2022/03/30 09:19:03;;;;;;;;;;;;;;;;;;5032852;28;20330;-61
2022/03/30 09:21:29;;;;;;;;;;;;;;;;;;5032636;28;19912;-61
2022/03/30 09:23:55;;;;;;;;;;;;;;;;;;5033202;28;19905;-61
2022/03/30 09:26:21;;;;;;;;;;;;;;;;;;5032793;28;20295;-61
2022/03/30 09:28:47;;;;;;;;;;;;;;;;;;5032643;28;19999;-61
2022/03/30 09:31:13;;;;;;;;;;;;;;;;;;5032804;28;19912;-61
2022/03/30 09:33:39;;;;;;;;;;;;;;;;;;5032745;28;19928;-60
2022/03/30 09:36:05;;;;;;;;;;;;;;;;;;5032732;28;19905;-61
2022/03/30 09:38:32;;;;;;;;;;;;;;;;;;5032659;28;19909;-61
2022/03/30 09:41:03;;;;;;;;;;;;;;;;;;5032712;28;19905;-61
2022/03/30 09:43:29;;;;;;;;;;;;;;;;;;5032658;28;19905;-47
2022/03/30 09:45:56;;;;;;;;;;;;;;;;;;5032569;28;20280;-47
2022/03/30 09:48:22;;;;;;;;;;;;;;;;;;5031224;28;19928;-48
2022/03/30 09:50:48;;;;;;;;;;;;;;;;;;5032499;28;19915;-47
2022/03/30 09:53:13;;;;;;;;;;;;;;;;;;5032519;28;19905;-49
2022/03/30 09:55:39;;;;;;;;;;;;;;;;;;5032432;28;19912;-48
2022/03/30 09:58:06;;;;;;;;;;;;;;;;;;5032427;28;19905;-48
2022/03/30 10:00:32;;;;;;;;;;;;;;;;;;5032490;28;19905;-48
2022/03/30 10:02:59;;;;;;;;;;;;;;;;;;5032204;28;19917;-61
2022/03/30 10:05:25;;;;;;;;;;;;;;;;;;5032431;28;19905;-62
2022/03/30 10:07:52;;;;;;;;;;;;;;;;;;5032412;28;20279;-59
2022/03/30 10:10:19;;;;;;;;;;;;;;;;;;5032286;28;19919;-61
2022/03/30 10:12:45;;;;;;;;;;;;;;;;;;5032219;28;19904;-62
2022/03/30 10:15:11;;;;;;;;;;;;;;;;;;5032104;28;20363;-61
2022/03/30 10:17:37;;;;;;;;;;;;;;;;;;5032076;28;19951;-61
2022/03/30 10:20:03;;;;;;;;;;;;;;;;;;5032185;28;19996;-61
2022/03/30 10:22:30;;;;;;;;;;;;;;;;;;5032149;28;19905;-61
2022/03/30 10:24:56;;;;;;;;;;;;;;;;;;5032136;28;20275;-61
2022/03/30 10:27:22;;;;;;;;;;;;;;;;;;5032010;28;19905;-61
2022/03/30 10:29:48;;;;;;;;;;;;;;;;;;5032154;28;19913;-60
2022/03/30 10:32:14;;;;;;;;;;;;;;;;;;5031989;28;19911;-61
2022/03/30 10:34:40;;;;;;;;;;;;;;;;;;5035233;28;19911;-61
2022/03/30 10:37:07;;;;;;;;;;;;;;;;;;5035625;28;19904;-61
2022/03/30 10:39:33;;;;;;;;;;;;;;;;;;5035451;28;20371;-47
2022/03/30 10:41:59;;;;;;;;;;;;;;;;;;5035374;28;19936;-48
2022/03/30 10:44:25;;;;;;;;;;;;;;;;;;5035533;28;19908;-46
2022/03/30 10:46:50;;;;;;;;;;;;;;;;;;5035335;28;19909;-47
2022/03/30 10:49:16;;;;;;;;;;;;;;;;;;5035596;28;19917;-48
2022/03/30 10:51:43;;;;;;;;;;;;;;;;;;5035404;28;20317;-47
2022/03/30 10:54:09;;;;;;;;;;;;;;;;;;5035728;28;19905;-48
2022/03/30 10:56:36;;;;;;;;;;;;;;;;;;5035538;28;20382;-48
2022/03/30 10:59:02;;;;;;;;;;;;;;;;;;5035357;28;19905;-48
2022/03/30 11:01:28;;;;;;;;;;;;;;;;;;5035204;28;20419;-48
2022/03/30 11:03:54;;;;;;;;;;;;;;;;;;5035095;28;19917;-47
2022/03/30 11:06:19;;;;;;;;;;;;;;;;;;5035175;28;19905;-48
2022/03/30 11:08:48;;;;;;;;;;;;;;;;;;5035093;28;19908;-47
2022/03/30 11:11:14;;;;;;;;;;;;;;;;;;5035383;28;20260;-48
2022/03/30 11:13:40;;;;;;;;;;;;;;;;;;5035147;28;19905;-47
2022/03/30 11:16:11;;;;;;;;;;;;;;;;;;5035564;28;19955;-48
2022/03/30 11:18:37;;;;;;;;;;;;;;;;;;5034664;28;19905;-47
2022/03/30 11:21:03;;;;;;;;;;;;;;;;;;5034694;28;20279;-47
2022/03/30 11:23:29;;;;;;;;;;;;;;;;;;5034769;28;19905;-47
2022/03/30 11:25:56;;;;;;;;;;;;;;;;;;5034629;28;19911;-47
2022/03/30 11:28:22;;;;;;;;;;;;;;;;;;5035072;28;20275;-47
2022/03/30 11:30:48;;;;;;;;;;;;;;;;;;5034717;28;19920;-47
2022/03/30 11:33:17;;;;;;;;;;;;;;;;;;5034864;28;19999;-47
2022/03/30 11:35:43;;;;;;;;;;;;;;;;;;5034963;28;19912;-47
2022/03/30 11:38:09;;;;;;;;;;;;;;;;;;5034718;28;19944;-47
2022/03/30 11:40:35;;;;;;;;;;;;;;;;;;5034561;28;19905;-48
2022/03/30 11:43:01;;;;;;;;;;;;;;;;;;5034583;28;20299;-47
2022/03/30 11:45:27;;;;;;;;;;;;;;;;;;5033258;28;19979;-48
2022/03/30 11:47:53;;;;;;;;;;;;;;;;;;5034469;28;20264;-47
2022/03/30 11:50:22;;;;;;;;;;;;;;;;;;5034706;28;19959;-48
2022/03/30 11:52:48;;;;;;;;;;;;;;;;;;5034372;28;19951;-48
2022/03/30 11:55:14;;;;;;;;;;;;;;;;;;5034570;28;19909;-48
2022/03/30 11:57:40;;;;;;;;;;;;;;;;;;5034360;28;20359;-47
2022/03/30 12:00:09;;;;;;;;;;;;;;;;;;5034452;28;19931;-47
2022/03/30 12:02:35;;;;;;;;;;;;;;;;;;5033926;28;20342;-48
2022/03/30 12:05:01;;;;;;;;;;;;;;;;;;5034009;28;19905;-48
2022/03/30 12:07:27;;;;;;;;;;;;;;;;;;5034109;28;19905;-49
2022/03/30 12:09:57;;;;;;;;;;;;;;;;;;5033999;28;19917;-46
2022/03/30 12:12:23;;;;;;;;;;;;;;;;;;5034063;28;20363;-48
2022/03/30 12:14:49;;;;;;;;;;;;;;;;;;5033994;28;20438;-47
2022/03/30 12:17:15;;;;;;;;;;;;;;;;;;5033889;28;19905;-47
2022/03/30 12:19:41;;;;;;;;;;;;;;;;;;5033867;28;20290;-48
2022/03/30 12:22:08;;;;;;;;;;;;;;;;;;5034114;28;19905;-48
2022/03/30 12:24:34;;;;;;;;;;;;;;;;;;5033789;28;20004;-47
2022/03/30 12:27:00;;;;;;;;;;;;;;;;;;5033733;28;19999;-48
2022/03/30 12:29:26;;;;;;;;;;;;;;;;;;5033996;28;19967;-47
2022/03/30 12:31:53;;;;;;;;;;;;;;;;;;5033594;28;19980;-46
2022/03/30 12:34:19;;;;;;;;;;;;;;;;;;5033873;28;19905;-47
2022/03/30 12:36:45;;;;;;;;;;;;;;;;;;5033540;28;20287;-46
2022/03/30 12:39:11;;;;;;;;;;;;;;;;;;5033455;28;19909;-47
2022/03/30 12:41:37;;;;;;;;;;;;;;;;;;5033448;28;19905;-48
2022/03/30 12:44:03;;;;;;;;;;;;;;;;;;5033514;28;20024;-47
2022/03/30 12:46:28;;;;;;;;;;;;;;;;;;5033648;28;20011;-48
2022/03/30 12:48:54;;;;;;;;;;;;;;;;;;5033222;28;20291;-48
2022/03/30 12:51:20;;;;;;;;;;;;;;;;;;5033190;28;19916;-46
2022/03/30 12:53:46;;;;;;;;;;;;;;;;;;5033230;28;19912;-48
2022/03/30 12:56:12;;;;;;;;;;;;;;;;;;5032687;28;19979;-47
2022/03/30 12:58:38;;;;;;;;;;;;;;;;;;5033126;28;19959;-46
2022/03/30 13:01:05;;;;;;;;;;;;;;;;;;5033321;28;19909;-47
2022/03/30 13:03:31;;;;;;;;;;;;;;;;;;5032998;28;19924;-47
2022/03/30 13:05:57;;;;;;;;;;;;;;;;;;5033133;28;19905;-58
2022/03/30 13:08:23;;;;;;;;;;;;;;;;;;5033041;28;19905;-58
2022/03/30 13:10:49;;;;;;;;;;;;;;;;;;5032906;28;19989;-58
2022/03/30 13:13:15;;;;;;;;;;;;;;;;;;5033131;28;19905;-58
2022/03/30 13:15:41;;;;;;;;;;;;;;;;;;5033057;28;19916;-58
2022/03/30 13:18:09;;;;;;;;;;;;;;;;;;5032883;28;19905;-58
2022/03/30 13:20:36;;;;;;;;;;;;;;;;;;5032931;28;19928;-58
2022/03/30 13:23:01;;;;;;;;;;;;;;;;;;5032867;28;20376;-58
2022/03/30 13:25:27;;;;;;;;;;;;;;;;;;5032712;28;19905;-59
2022/03/30 13:27:54;;;;;;;;;;;;;;;;;;5032740;28;19905;-58
2022/03/30 13:30:21;;;;;;;;;;;;;;;;;;5031429;28;19959;-59
2022/03/30 13:32:47;;;;;;;;;;;;;;;;;;5032732;28;19905;-58
2022/03/30 13:35:13;;;;;;;;;;;;;;;;;;5032892;28;20352;-59
2022/03/30 13:37:39;;;;;;;;;;;;;;;;;;5032545;28;19905;-59
2022/03/30 13:40:05;;;;;;;;;;;;;;;;;;5032716;28;20268;-58
2022/03/30 13:42:34;;;;;;;;;;;;;;;;;;5032749;28;19909;-59
2022/03/30 13:45:00;;;;;;;;;;;;;;;;;;5032974;28;19909;-62
2022/03/30 13:47:26;;;;;;;;;;;;;;;;;;5032864;28;20478;-58
2022/03/30 13:49:52;;;;;;;;;;;;;;;;;;5032481;28;19913;-58
2022/03/30 13:52:18;;;;;;;;;;;;;;;;;;5032788;28;19932;-58
2022/03/30 13:54:44;;;;;;;;;;;;;;;;;;5032583;28;19905;-58
2022/03/30 13:57:10;;;;;;;;;;;;;;;;;;5032653;28;19912;-58
2022/03/30 13:59:36;;;;;;;;;;;;;;;;;;5032372;28;19912;-59
2022/03/30 14:02:02;;;;;;;;;;;;;;;;;;5032493;28;19917;-58
2022/03/30 14:04:27;;;;;;;;;;;;;;;;;;5032393;28;19959;-58
2022/03/30 14:06:54;;;;;;;;;;;;;;;;;;5032347;28;20004;-58
2022/03/30 14:09:19;;;;;;;;;;;;;;;;;;5035309;28;19913;-58
2022/03/30 14:11:45;;;;;;;;;;;;;;;;;;5036210;28;19906;-58
2022/03/30 14:14:11;;;;;;;;;;;;;;;;;;5036221;28;20000;-58
2022/03/30 14:16:37;;;;;;;;;;;;;;;;;;5036126;28;19951;-58
2022/03/30 14:19:03;;;;;;;;;;;;;;;;;;5036262;28;19952;-58
2022/03/30 14:21:29;;;;;;;;;;;;;;;;;;5036107;28;19905;-58
2022/03/30 14:23:55;;;;;;;;;;;;;;;;;;5036061;28;20346;-58
2022/03/30 14:26:20;;;;;;;;;;;;;;;;;;5036012;28;19909;-58
2022/03/30 14:28:46;;;;;;;;;;;;;;;;;;5034682;28;19905;-58
2022/03/30 14:31:12;;;;;;;;;;;;;;;;;;5035844;28;19963;-58
2022/03/30 14:33:38;;;;;;;;;;;;;;;;;;5035828;28;19905;-57
2022/03/30 14:36:04;;;;;;;;;;;;;;;;;;5035936;28;20382;-58
2022/03/30 14:38:30;;;;;;;;;;;;;;;;;;5035865;28;20291;-58
2022/03/30 14:40:56;;;;;;;;;;;;;;;;;;5035743;28;19912;-57
2022/03/30 14:43:22;;;;;;;;;;;;;;;;;;5035741;28;19971;-58
2022/03/30 14:45:48;;;;;;;;;;;;;;;;;;5035589;28;19905;-58
2022/03/30 14:48:13;;;;;;;;;;;;;;;;;;5035585;28;20371;-58
2022/03/30 14:50:41;;;;;;;;;;;;;;;;;;5035740;28;19912;-58
2022/03/30 14:53:06;;;;;;;;;;;;;;;;;;5035533;28;19944;-59
2022/03/30 14:55:32;;;;;;;;;;;;;;;;;;5035530;28;19931;-59
2022/03/30 14:57:58;;;;;;;;;;;;;;;;;;5035387;28;19905;-59
2022/03/30 15:00:24;;;;;;;;;;;;;;;;;;5035428;28;19959;-59
2022/03/30 15:02:50;;;;;;;;;;;;;;;;;;5035021;28;20593;-59
2022/03/30 15:05:16;;;;;;;;;;;;;;;;;;5035310;28;19905;-59
2022/03/30 15:07:42;;;;;;;;;;;;;;;;;;5035092;28;19952;-59
2022/03/30 15:10:09;;;;;;;;;;;;;;;;;;5034965;28;19982;-59
2022/03/30 15:12:35;;;;;;;;;;;;;;;;;;5035044;28;19905;-59
2022/03/30 15:15:00;;;;;;;;;;;;;;;;;;5035220;28;19909;-59
2022/03/30 15:17:27;;;;;;;;;;;;;;;;;;5035095;28;20372;-58
2022/03/30 15:19:53;;;;;;;;;;;;;;;;;;5034666;28;19906;-59
2022/03/30 15:22:20;;;;;;;;;;;;;;;;;;5034977;28;20278;-59
2022/03/30 15:24:46;;;;;;;;;;;;;;;;;;5034697;28;20004;-59
2022/03/30 15:27:12;;;;;;;;;;;;;;;;;;5034565;28;19905;-59
2022/03/30 15:29:38;;;;;;;;;;;;;;;;;;5034723;28;19913;-59
2022/03/30 15:32:04;;;;;;;;;;;;;;;;;;5035035;28;20295;-59
2022/03/30 15:34:30;;;;;;;;;;;;;;;;;;5035014;28;20268;-59
2022/03/30 15:36:56;;;;;;;;;;;;;;;;;;5034662;28;19979;-59
2022/03/30 15:39:23;;;;;;;;;;;;;;;;;;5034572;28;19905;-59
2022/03/30 15:41:49;;;;;;;;;;;;;;;;;;5034482;28;20260;-59
2022/03/30 15:44:18;;;;;;;;;;;;;;;;;;5034773;28;19905;-59
2022/03/30 15:46:45;;;;;;;;;;;;;;;;;;5034349;28;20363;-59
2022/03/30 15:49:11;;;;;;;;;;;;;;;;;;5034302;28;19909;-59
2022/03/30 15:51:37;;;;;;;;;;;;;;;;;;5034618;28;19904;-59
2022/03/30 15:54:03;;;;;;;;;;;;;;;;;;5034479;28;20240;-59
2022/03/30 15:56:29;;;;;;;;;;;;;;;;;;5034378;28;19905;-59
2022/03/30 15:58:55;;;;;;;;;;;;;;;;;;5034015;28;20331;-59
2022/03/30 16:01:21;;;;;;;;;;;;;;;;;;5033921;28;19912;-59
2022/03/30 16:03:47;;;;;;;;;;;;;;;;;;5033707;28;19979;-59
2022/03/30 16:06:13;;;;;;;;;;;;;;;;;;5033856;28;19912;-59
2022/03/30 16:08:54;;;;;;;;;;;;;;;;;;5033882;28;19905;-60
2022/03/30 16:14:05;;;;;;;;;;;;;;;;;;5034034;28;19971;-60
2022/03/30 16:16:32;;;;;;;;;;;;;;;;;;5033985;28;19912;-60
2022/03/30 16:18:58;;;;;;;;;;;;;;;;;;5034011;28;19912;-60
2022/03/30 16:21:24;;;;;;;;;;;;;;;;;;5034050;28;20275;-60
2022/03/30 16:23:49;;;;;;;;;;;;;;;;;;5033805;28;19913;-60
2022/03/30 16:26:15;;;;;;;;;;;;;;;;;;5033680;28;20010;-60
2022/03/30 16:28:41;;;;;;;;;;;;;;;;;;5033764;28;19912;-60
2022/03/30 16:31:07;;;;;;;;;;;;;;;;;;5032930;28;19960;-60
2022/03/30 16:33:33;;;;;;;;;;;;;;;;;;5033587;28;19995;-61
2022/03/30 16:35:59;;;;;;;;;;;;;;;;;;5033494;28;19916;-61
2022/03/30 16:38:25;;;;;;;;;;;;;;;;;;5033717;28;19911;-61
2022/03/30 16:40:51;;;;;;;;;;;;;;;;;;5033512;28;19917;-60
2022/03/30 16:43:18;;;;;;;;;;;;;;;;;;5032099;28;20360;-61
2022/03/30 16:45:44;;;;;;;;;;;;;;;;;;5033812;28;19916;-61
2022/03/30 16:48:10;;;;;;;;;;;;;;;;;;5033324;28;19905;-61